sensor_id;sensor_type;location;lat;lon;timestamp;P1;durP1;ratioP1;P2;durP2;ratioP2
70545;SDS011;58098;51.680;5.134;2023-06-22T00:01:16;9.43;;;6.30;;
70545;SDS011;58098;51.680;5.134;2023-06-22T00:03:41;9.30;;;6.73;;
70545;SDS011;58098;51.680;5.134;2023-06-22T00:06:07;9.77;;;6.67;;
70545;SDS011;58098;51.680;5.134;2023-06-22T00:08:32;10.00;;;6.43;;
70545;SDS011;58098;51.680;5.134;2023-06-22T00:10:57;8.43;;;6.83;;
70545;SDS011;58098;51.680;5.134;2023-06-22T00:13:23;8.73;;;6.17;;
70545;SDS011;58098;51.680;5.134;2023-06-22T00:15:48;11.40;;;6.25;;
70545;SDS011;58098;51.680;5.134;2023-06-22T00:18:13;7.93;;;6.53;;
70545;SDS011;58098;51.680;5.134;2023-06-22T00:20:39;7.63;;;5.47;;
70545;SDS011;58098;51.680;5.134;2023-06-22T00:23:07;9.40;;;6.40;;
70545;SDS011;58098;51.680;5.134;2023-06-22T00:25:36;9.13;;;5.95;;
70545;SDS011;58098;51.680;5.134;2023-06-22T00:28:05;12.30;;;8.18;;
70545;SDS011;58098;51.680;5.134;2023-06-22T00:30:31;12.30;;;7.57;;
70545;SDS011;58098;51.680;5.134;2023-06-22T00:32:57;11.52;;;8.88;;
70545;SDS011;58098;51.680;5.134;2023-06-22T00:35:23;11.93;;;7.90;;
70545;SDS011;58098;51.680;5.134;2023-06-22T00:37:53;12.13;;;8.95;;
70545;SDS011;58098;51.680;5.134;2023-06-22T00:40:25;13.65;;;9.10;;
70545;SDS011;58098;51.680;5.134;2023-06-22T00:42:51;10.57;;;7.70;;
70545;SDS011;58098;51.680;5.134;2023-06-22T00:45:16;12.17;;;8.20;;
70545;SDS011;58098;51.680;5.134;2023-06-22T00:47:41;11.47;;;7.87;;
70545;SDS011;58098;51.680;5.134;2023-06-22T00:50:08;10.97;;;8.13;;
70545;SDS011;58098;51.680;5.134;2023-06-22T00:52:38;11.85;;;8.25;;
70545;SDS011;58098;51.680;5.134;2023-06-22T00:55:08;10.25;;;7.97;;
70545;SDS011;58098;51.680;5.134;2023-06-22T00:57:34;11.77;;;8.43;;
70545;SDS011;58098;51.680;5.134;2023-06-22T01:00:02;11.85;;;8.30;;
70545;SDS011;58098;51.680;5.134;2023-06-22T01:02:31;10.57;;;8.13;;
70545;SDS011;58098;51.680;5.134;2023-06-22T01:04:57;12.00;;;8.38;;
70545;SDS011;58098;51.680;5.134;2023-06-22T01:07:28;11.53;;;8.40;;
70545;SDS011;58098;51.680;5.134;2023-06-22T01:10:06;14.98;;;9.98;;
70545;SDS011;58098;51.680;5.134;2023-06-22T01:12:40;12.37;;;9.07;;
70545;SDS011;58098;51.680;5.134;2023-06-22T01:15:27;13.20;;;9.45;;
70545;SDS011;58098;51.680;5.134;2023-06-22T01:17:56;15.68;;;9.88;;
70545;SDS011;58098;51.680;5.134;2023-06-22T01:20:23;21.75;;;9.75;;
70545;SDS011;58098;51.680;5.134;2023-06-22T01:25:47;17.33;;;10.10;;
70545;SDS011;58098;51.680;5.134;2023-06-22T01:28:38;16.65;;;9.90;;
70545;SDS011;58098;51.680;5.134;2023-06-22T01:31:15;15.00;;;9.77;;
70545;SDS011;58098;51.680;5.134;2023-06-22T01:33:43;17.25;;;9.82;;
70545;SDS011;58098;51.680;5.134;2023-06-22T01:36:11;13.50;;;9.95;;
70545;SDS011;58098;51.680;5.134;2023-06-22T01:38:39;14.90;;;9.93;;
70545;SDS011;58098;51.680;5.134;2023-06-22T01:41:04;15.73;;;9.98;;
70545;SDS011;58098;51.680;5.134;2023-06-22T01:43:30;15.05;;;9.95;;
70545;SDS011;58098;51.680;5.134;2023-06-22T01:46:00;14.63;;;10.47;;
70545;SDS011;58098;51.680;5.134;2023-06-22T01:48:26;17.55;;;11.15;;
70545;SDS011;58098;51.680;5.134;2023-06-22T01:50:52;14.82;;;11.05;;
70545;SDS011;58098;51.680;5.134;2023-06-22T01:53:20;17.48;;;11.57;;
70545;SDS011;58098;51.680;5.134;2023-06-22T01:55:46;17.65;;;11.98;;
70545;SDS011;58098;51.680;5.134;2023-06-22T01:58:12;16.43;;;12.00;;
70545;SDS011;58098;51.680;5.134;2023-06-22T02:00:38;18.70;;;12.20;;
70545;SDS011;58098;51.680;5.134;2023-06-22T02:03:11;15.45;;;12.57;;
70545;SDS011;58098;51.680;5.134;2023-06-22T02:06:02;20.80;;;12.00;;
70545;SDS011;58098;51.680;5.134;2023-06-22T02:08:32;18.10;;;12.02;;
70545;SDS011;58098;51.680;5.134;2023-06-22T02:11:03;18.77;;;13.07;;
70545;SDS011;58098;51.680;5.134;2023-06-22T02:13:29;16.20;;;12.20;;
70545;SDS011;58098;51.680;5.134;2023-06-22T02:15:55;22.73;;;13.60;;
70545;SDS011;58098;51.680;5.134;2023-06-22T02:18:21;17.90;;;12.67;;
70545;SDS011;58098;51.680;5.134;2023-06-22T02:20:46;20.10;;;13.90;;
70545;SDS011;58098;51.680;5.134;2023-06-22T02:23:12;19.57;;;12.60;;
70545;SDS011;58098;51.680;5.134;2023-06-22T02:25:37;18.58;;;13.88;;
70545;SDS011;58098;51.680;5.134;2023-06-22T02:28:03;19.77;;;14.00;;
70545;SDS011;58098;51.680;5.134;2023-06-22T02:30:28;24.73;;;14.43;;
70545;SDS011;58098;51.680;5.134;2023-06-22T02:32:54;19.07;;;13.93;;
70545;SDS011;58098;51.680;5.134;2023-06-22T02:35:24;20.23;;;15.18;;
70545;SDS011;58098;51.680;5.134;2023-06-22T02:37:50;19.35;;;14.40;;
70545;SDS011;58098;51.680;5.134;2023-06-22T02:40:16;19.67;;;14.47;;
70545;SDS011;58098;51.680;5.134;2023-06-22T02:42:42;21.40;;;13.83;;
70545;SDS011;58098;51.680;5.134;2023-06-22T02:45:07;21.75;;;15.77;;
70545;SDS011;58098;51.680;5.134;2023-06-22T02:47:33;24.23;;;15.60;;
70545;SDS011;58098;51.680;5.134;2023-06-22T02:49:58;20.50;;;16.33;;
70545;SDS011;58098;51.680;5.134;2023-06-22T02:52:23;19.43;;;15.00;;
70545;SDS011;58098;51.680;5.134;2023-06-22T02:54:49;20.27;;;15.50;;
70545;SDS011;58098;51.680;5.134;2023-06-22T02:57:14;21.13;;;16.50;;
70545;SDS011;58098;51.680;5.134;2023-06-22T02:59:40;23.70;;;16.20;;
70545;SDS011;58098;51.680;5.134;2023-06-22T03:02:08;23.98;;;17.17;;
70545;SDS011;58098;51.680;5.134;2023-06-22T03:04:35;25.20;;;17.27;;
70545;SDS011;58098;51.680;5.134;2023-06-22T03:07:00;28.33;;;17.02;;
70545;SDS011;58098;51.680;5.134;2023-06-22T03:09:26;23.00;;;16.20;;
70545;SDS011;58098;51.680;5.134;2023-06-22T03:11:53;23.17;;;16.80;;
70545;SDS011;58098;51.680;5.134;2023-06-22T03:14:19;22.60;;;16.25;;
70545;SDS011;58098;51.680;5.134;2023-06-22T03:16:44;21.60;;;16.67;;
70545;SDS011;58098;51.680;5.134;2023-06-22T03:19:10;28.03;;;17.60;;
70545;SDS011;58098;51.680;5.134;2023-06-22T03:21:37;23.77;;;16.13;;
70545;SDS011;58098;51.680;5.134;2023-06-22T03:24:03;30.73;;;16.67;;
70545;SDS011;58098;51.680;5.134;2023-06-22T03:26:29;22.52;;;17.08;;
70545;SDS011;58098;51.680;5.134;2023-06-22T03:28:55;27.33;;;16.87;;
70545;SDS011;58098;51.680;5.134;2023-06-22T03:31:20;26.13;;;16.47;;
70545;SDS011;58098;51.680;5.134;2023-06-22T03:33:46;24.25;;;16.90;;
70545;SDS011;58098;51.680;5.134;2023-06-22T03:36:15;27.60;;;17.10;;
70545;SDS011;58098;51.680;5.134;2023-06-22T03:38:45;25.70;;;17.05;;
70545;SDS011;58098;51.680;5.134;2023-06-22T03:41:14;24.20;;;17.97;;
70545;SDS011;58098;51.680;5.134;2023-06-22T03:43:40;23.73;;;16.73;;
70545;SDS011;58098;51.680;5.134;2023-06-22T03:46:06;26.40;;;17.90;;
70545;SDS011;58098;51.680;5.134;2023-06-22T03:48:31;25.15;;;17.42;;
70545;SDS011;58098;51.680;5.134;2023-06-22T03:50:56;24.93;;;17.40;;
70545;SDS011;58098;51.680;5.134;2023-06-22T03:53:24;26.38;;;17.02;;
70545;SDS011;58098;51.680;5.134;2023-06-22T03:55:50;26.13;;;17.33;;
70545;SDS011;58098;51.680;5.134;2023-06-22T03:58:16;23.23;;;14.97;;
70545;SDS011;58098;51.680;5.134;2023-06-22T04:00:44;24.50;;;15.98;;
70545;SDS011;58098;51.680;5.134;2023-06-22T04:03:11;22.13;;;16.15;;
70545;SDS011;58098;51.680;5.134;2023-06-22T04:05:37;23.83;;;15.57;;
70545;SDS011;58098;51.680;5.134;2023-06-22T04:08:03;25.37;;;16.03;;
70545;SDS011;58098;51.680;5.134;2023-06-22T04:10:29;25.73;;;17.48;;
70545;SDS011;58098;51.680;5.134;2023-06-22T04:12:55;28.63;;;17.47;;
70545;SDS011;58098;51.680;5.134;2023-06-22T04:15:20;24.30;;;16.70;;
70545;SDS011;58098;51.680;5.134;2023-06-22T04:17:45;22.90;;;16.93;;
70545;SDS011;58098;51.680;5.134;2023-06-22T04:20:11;28.70;;;16.13;;
70545;SDS011;58098;51.680;5.134;2023-06-22T04:22:36;23.57;;;16.50;;
70545;SDS011;58098;51.680;5.134;2023-06-22T04:25:01;23.57;;;16.30;;
70545;SDS011;58098;51.680;5.134;2023-06-22T04:27:27;21.90;;;15.93;;
70545;SDS011;58098;51.680;5.134;2023-06-22T04:29:52;27.87;;;16.27;;
70545;SDS011;58098;51.680;5.134;2023-06-22T04:32:17;21.73;;;14.30;;
70545;SDS011;58098;51.680;5.134;2023-06-22T04:34:43;24.00;;;15.70;;
70545;SDS011;58098;51.680;5.134;2023-06-22T04:37:08;26.73;;;15.33;;
70545;SDS011;58098;51.680;5.134;2023-06-22T04:39:34;22.13;;;15.63;;
70545;SDS011;58098;51.680;5.134;2023-06-22T04:42:00;22.08;;;14.75;;
70545;SDS011;58098;51.680;5.134;2023-06-22T04:44:26;21.10;;;15.10;;
70545;SDS011;58098;51.680;5.134;2023-06-22T04:46:55;21.80;;;15.10;;
70545;SDS011;58098;51.680;5.134;2023-06-22T04:49:27;20.48;;;14.65;;
70545;SDS011;58098;51.680;5.134;2023-06-22T04:52:01;22.92;;;14.63;;
70545;SDS011;58098;51.680;5.134;2023-06-22T04:54:28;19.63;;;13.93;;
70545;SDS011;58098;51.680;5.134;2023-06-22T04:56:53;19.70;;;14.38;;
70545;SDS011;58098;51.680;5.134;2023-06-22T04:59:28;23.15;;;14.80;;
70545;SDS011;58098;51.680;5.134;2023-06-22T05:01:58;18.92;;;13.93;;
70545;SDS011;58098;51.680;5.134;2023-06-22T05:04:26;21.10;;;14.53;;
70545;SDS011;58098;51.680;5.134;2023-06-22T05:06:53;22.45;;;14.65;;
70545;SDS011;58098;51.680;5.134;2023-06-22T05:09:19;23.85;;;15.35;;
70545;SDS011;58098;51.680;5.134;2023-06-22T05:11:45;18.83;;;13.75;;
70545;SDS011;58098;51.680;5.134;2023-06-22T05:14:11;19.03;;;13.60;;
70545;SDS011;58098;51.680;5.134;2023-06-22T05:16:36;24.27;;;14.32;;
70545;SDS011;58098;51.680;5.134;2023-06-22T05:19:02;19.83;;;14.23;;
70545;SDS011;58098;51.680;5.134;2023-06-22T05:21:29;20.80;;;13.35;;
70545;SDS011;58098;51.680;5.134;2023-06-22T05:23:56;21.55;;;13.45;;
70545;SDS011;58098;51.680;5.134;2023-06-22T05:26:25;16.83;;;12.50;;
70545;SDS011;58098;51.680;5.134;2023-06-22T05:28:52;17.70;;;12.18;;
70545;SDS011;58098;51.680;5.134;2023-06-22T05:31:18;17.47;;;12.27;;
70545;SDS011;58098;51.680;5.134;2023-06-22T05:33:47;19.25;;;13.00;;
70545;SDS011;58098;51.680;5.134;2023-06-22T05:36:13;19.13;;;12.93;;
70545;SDS011;58098;51.680;5.134;2023-06-22T05:38:39;18.73;;;11.20;;
70545;SDS011;58098;51.680;5.134;2023-06-22T05:41:05;19.73;;;11.87;;
70545;SDS011;58098;51.680;5.134;2023-06-22T05:43:30;18.58;;;13.02;;
70545;SDS011;58098;51.680;5.134;2023-06-22T05:45:56;16.10;;;12.03;;
70545;SDS011;58098;51.680;5.134;2023-06-22T05:48:22;17.70;;;12.18;;
70545;SDS011;58098;51.680;5.134;2023-06-22T05:50:47;16.80;;;11.97;;
70545;SDS011;58098;51.680;5.134;2023-06-22T05:53:12;14.60;;;12.37;;
70545;SDS011;58098;51.680;5.134;2023-06-22T05:55:38;17.50;;;11.97;;
70545;SDS011;58098;51.680;5.134;2023-06-22T05:58:03;19.73;;;12.10;;
70545;SDS011;58098;51.680;5.134;2023-06-22T06:00:29;19.53;;;13.27;;
70545;SDS011;58098;51.680;5.134;2023-06-22T06:02:54;21.37;;;13.33;;
70545;SDS011;58098;51.680;5.134;2023-06-22T06:05:20;18.05;;;13.02;;
70545;SDS011;58098;51.680;5.134;2023-06-22T06:07:45;19.73;;;12.77;;
70545;SDS011;58098;51.680;5.134;2023-06-22T06:10:11;18.37;;;13.57;;
70545;SDS011;58098;51.680;5.134;2023-06-22T06:12:37;21.38;;;14.05;;
70545;SDS011;58098;51.680;5.134;2023-06-22T06:15:03;21.60;;;13.37;;
70545;SDS011;58098;51.680;5.134;2023-06-22T06:17:29;20.77;;;15.00;;
70545;SDS011;58098;51.680;5.134;2023-06-22T06:19:54;20.70;;;14.13;;
70545;SDS011;58098;51.680;5.134;2023-06-22T06:22:19;20.37;;;14.17;;
70545;SDS011;58098;51.680;5.134;2023-06-22T06:24:46;23.15;;;14.93;;
70545;SDS011;58098;51.680;5.134;2023-06-22T06:27:12;23.42;;;14.38;;
70545;SDS011;58098;51.680;5.134;2023-06-22T06:29:38;18.83;;;14.03;;
70545;SDS011;58098;51.680;5.134;2023-06-22T06:32:03;21.07;;;14.07;;
70545;SDS011;58098;51.680;5.134;2023-06-22T06:34:29;22.97;;;14.47;;
70545;SDS011;58098;51.680;5.134;2023-06-22T06:36:54;21.37;;;14.20;;
70545;SDS011;58098;51.680;5.134;2023-06-22T06:39:19;22.27;;;15.57;;
70545;SDS011;58098;51.680;5.134;2023-06-22T06:41:45;23.15;;;14.40;;
70545;SDS011;58098;51.680;5.134;2023-06-22T06:44:11;18.67;;;13.00;;
70545;SDS011;58098;51.680;5.134;2023-06-22T06:46:36;19.23;;;13.47;;
70545;SDS011;58098;51.680;5.134;2023-06-22T06:49:02;15.68;;;13.00;;
70545;SDS011;58098;51.680;5.134;2023-06-22T06:51:28;20.37;;;13.23;;
70545;SDS011;58098;51.680;5.134;2023-06-22T06:53:53;20.67;;;14.00;;
70545;SDS011;58098;51.680;5.134;2023-06-22T06:56:19;21.03;;;13.47;;
70545;SDS011;58098;51.680;5.134;2023-06-22T06:58:44;22.00;;;13.47;;
70545;SDS011;58098;51.680;5.134;2023-06-22T07:01:10;20.03;;;13.50;;
70545;SDS011;58098;51.680;5.134;2023-06-22T07:03:37;18.90;;;12.38;;
70545;SDS011;58098;51.680;5.134;2023-06-22T07:06:02;17.43;;;12.67;;
70545;SDS011;58098;51.680;5.134;2023-06-22T07:08:27;19.85;;;13.90;;
70545;SDS011;58098;51.680;5.134;2023-06-22T07:10:53;21.23;;;14.20;;
70545;SDS011;58098;51.680;5.134;2023-06-22T07:13:19;18.20;;;13.60;;
70545;SDS011;58098;51.680;5.134;2023-06-22T07:15:44;21.30;;;14.70;;
70545;SDS011;58098;51.680;5.134;2023-06-22T07:18:09;18.27;;;13.10;;
70545;SDS011;58098;51.680;5.134;2023-06-22T07:20:35;19.60;;;13.90;;
70545;SDS011;58098;51.680;5.134;2023-06-22T07:23:00;19.60;;;13.70;;
70545;SDS011;58098;51.680;5.134;2023-06-22T07:25:25;21.48;;;14.80;;
70545;SDS011;58098;51.680;5.134;2023-06-22T07:28:04;19.93;;;14.03;;
70545;SDS011;58098;51.680;5.134;2023-06-22T07:30:32;19.10;;;15.23;;
70545;SDS011;58098;51.680;5.134;2023-06-22T07:32:58;17.33;;;14.33;;
70545;SDS011;58098;51.680;5.134;2023-06-22T07:35:28;22.75;;;15.27;;
70545;SDS011;58098;51.680;5.134;2023-06-22T07:37:54;22.73;;;16.33;;
70545;SDS011;58098;51.680;5.134;2023-06-22T07:40:19;19.67;;;15.80;;
70545;SDS011;58098;51.680;5.134;2023-06-22T07:42:44;20.17;;;15.23;;
70545;SDS011;58098;51.680;5.134;2023-06-22T07:45:10;27.07;;;15.00;;
70545;SDS011;58098;51.680;5.134;2023-06-22T07:47:43;24.23;;;15.90;;
70545;SDS011;58098;51.680;5.134;2023-06-22T07:50:11;22.77;;;15.07;;
70545;SDS011;58098;51.680;5.134;2023-06-22T07:52:36;21.75;;;14.98;;
70545;SDS011;58098;51.680;5.134;2023-06-22T07:55:02;22.47;;;14.83;;
70545;SDS011;58098;51.680;5.134;2023-06-22T07:57:27;21.37;;;15.23;;
70545;SDS011;58098;51.680;5.134;2023-06-22T07:59:58;22.40;;;15.93;;
70545;SDS011;58098;51.680;5.134;2023-06-22T08:02:41;19.80;;;15.18;;
70545;SDS011;58098;51.680;5.134;2023-06-22T08:05:07;21.88;;;14.93;;
70545;SDS011;58098;51.680;5.134;2023-06-22T08:07:37;20.48;;;15.90;;
70545;SDS011;58098;51.680;5.134;2023-06-22T08:10:04;22.00;;;15.70;;
70545;SDS011;58098;51.680;5.134;2023-06-22T08:12:30;22.92;;;15.15;;
70545;SDS011;58098;51.680;5.134;2023-06-22T08:14:55;22.13;;;15.83;;
70545;SDS011;58098;51.680;5.134;2023-06-22T08:17:22;23.35;;;15.88;;
70545;SDS011;58098;51.680;5.134;2023-06-22T08:19:48;20.05;;;14.98;;
70545;SDS011;58098;51.680;5.134;2023-06-22T08:22:13;19.83;;;14.47;;
70545;SDS011;58098;51.680;5.134;2023-06-22T08:24:38;19.93;;;15.23;;
70545;SDS011;58098;51.680;5.134;2023-06-22T08:27:06;25.57;;;15.97;;
70545;SDS011;58098;51.680;5.134;2023-06-22T08:29:33;20.60;;;16.38;;
70545;SDS011;58098;51.680;5.134;2023-06-22T08:31:59;25.97;;;15.80;;
70545;SDS011;58098;51.680;5.134;2023-06-22T08:34:24;20.27;;;15.37;;
70545;SDS011;58098;51.680;5.134;2023-06-22T08:36:52;23.55;;;16.13;;
70545;SDS011;58098;51.680;5.134;2023-06-22T08:39:21;23.02;;;15.18;;
70545;SDS011;58098;51.680;5.134;2023-06-22T08:41:47;21.30;;;16.50;;
70545;SDS011;58098;51.680;5.134;2023-06-22T08:44:13;23.83;;;15.65;;
70545;SDS011;58098;51.680;5.134;2023-06-22T08:46:39;22.50;;;15.80;;
70545;SDS011;58098;51.680;5.134;2023-06-22T08:49:05;22.90;;;16.20;;
70545;SDS011;58098;51.680;5.134;2023-06-22T08:51:31;22.17;;;15.80;;
70545;SDS011;58098;51.680;5.134;2023-06-22T08:53:57;26.67;;;16.03;;
70545;SDS011;58098;51.680;5.134;2023-06-22T08:56:22;25.33;;;16.13;;
70545;SDS011;58098;51.680;5.134;2023-06-22T08:58:48;27.63;;;16.40;;
70545;SDS011;58098;51.680;5.134;2023-06-22T09:01:13;20.63;;;16.10;;
70545;SDS011;58098;51.680;5.134;2023-06-22T09:03:40;22.35;;;15.93;;
70545;SDS011;58098;51.680;5.134;2023-06-22T09:06:05;21.57;;;16.53;;
70545;SDS011;58098;51.680;5.134;2023-06-22T09:08:31;24.23;;;16.53;;
70545;SDS011;58098;51.680;5.134;2023-06-22T09:10:57;20.87;;;16.87;;
70545;SDS011;58098;51.680;5.134;2023-06-22T09:13:22;26.77;;;17.30;;
70545;SDS011;58098;51.680;5.134;2023-06-22T09:15:47;22.98;;;16.77;;
70545;SDS011;58098;51.680;5.134;2023-06-22T09:18:13;25.13;;;17.23;;
70545;SDS011;58098;51.680;5.134;2023-06-22T09:20:39;30.38;;;16.83;;
70545;SDS011;58098;51.680;5.134;2023-06-22T09:23:04;23.07;;;16.70;;
70545;SDS011;58098;51.680;5.134;2023-06-22T09:25:29;22.47;;;17.20;;
70545;SDS011;58098;51.680;5.134;2023-06-22T09:27:55;23.03;;;17.00;;
70545;SDS011;58098;51.680;5.134;2023-06-22T09:30:20;24.07;;;18.53;;
70545;SDS011;58098;51.680;5.134;2023-06-22T09:32:46;25.50;;;17.98;;
70545;SDS011;58098;51.680;5.134;2023-06-22T09:35:12;22.17;;;17.17;;
70545;SDS011;58098;51.680;5.134;2023-06-22T09:37:38;22.88;;;17.17;;
70545;SDS011;58098;51.680;5.134;2023-06-22T09:40:04;24.40;;;16.60;;
70545;SDS011;58098;51.680;5.134;2023-06-22T09:42:35;21.88;;;16.20;;
70545;SDS011;58098;51.680;5.134;2023-06-22T09:45:00;24.17;;;14.63;;
70545;SDS011;58098;51.680;5.134;2023-06-22T09:47:26;20.98;;;15.55;;
70545;SDS011;58098;51.680;5.134;2023-06-22T09:49:52;22.30;;;16.08;;
70545;SDS011;58098;51.680;5.134;2023-06-22T09:52:18;21.00;;;15.67;;
70545;SDS011;58098;51.680;5.134;2023-06-22T09:54:43;21.90;;;14.47;;
70545;SDS011;58098;51.680;5.134;2023-06-22T09:57:08;19.87;;;14.57;;
70545;SDS011;58098;51.680;5.134;2023-06-22T09:59:34;21.07;;;14.37;;
70545;SDS011;58098;51.680;5.134;2023-06-22T10:01:59;22.23;;;14.80;;
70545;SDS011;58098;51.680;5.134;2023-06-22T10:04:24;18.07;;;14.47;;
70545;SDS011;58098;51.680;5.134;2023-06-22T10:06:50;19.23;;;13.90;;
70545;SDS011;58098;51.680;5.134;2023-06-22T10:09:15;20.23;;;13.88;;
70545;SDS011;58098;51.680;5.134;2023-06-22T10:11:41;20.33;;;12.73;;
70545;SDS011;58098;51.680;5.134;2023-06-22T10:14:06;19.63;;;12.37;;
70545;SDS011;58098;51.680;5.134;2023-06-22T10:16:31;15.73;;;12.57;;
70545;SDS011;58098;51.680;5.134;2023-06-22T10:18:57;22.48;;;12.13;;
70545;SDS011;58098;51.680;5.134;2023-06-22T10:21:23;16.40;;;11.47;;
70545;SDS011;58098;51.680;5.134;2023-06-22T10:23:48;14.43;;;11.13;;
70545;SDS011;58098;51.680;5.134;2023-06-22T10:26:14;21.33;;;12.03;;
70545;SDS011;58098;51.680;5.134;2023-06-22T10:28:39;16.23;;;12.25;;
70545;SDS011;58098;51.680;5.134;2023-06-22T10:31:04;14.80;;;10.67;;
70545;SDS011;58098;51.680;5.134;2023-06-22T10:33:30;15.33;;;11.60;;
70545;SDS011;58098;51.680;5.134;2023-06-22T10:35:55;15.37;;;10.83;;
70545;SDS011;58098;51.680;5.134;2023-06-22T10:38:20;18.77;;;10.43;;
70545;SDS011;58098;51.680;5.134;2023-06-22T10:40:46;14.55;;;11.00;;
70545;SDS011;58098;51.680;5.134;2023-06-22T10:43:11;15.07;;;10.53;;
70545;SDS011;58098;51.680;5.134;2023-06-22T10:45:37;14.37;;;10.83;;
70545;SDS011;58098;51.680;5.134;2023-06-22T10:48:02;14.23;;;10.80;;
70545;SDS011;58098;51.680;5.134;2023-06-22T10:50:27;14.70;;;10.57;;
70545;SDS011;58098;51.680;5.134;2023-06-22T10:52:53;13.93;;;10.23;;
70545;SDS011;58098;51.680;5.134;2023-06-22T10:55:19;13.70;;;10.30;;
70545;SDS011;58098;51.680;5.134;2023-06-22T10:57:44;15.87;;;11.63;;
70545;SDS011;58098;51.680;5.134;2023-06-22T11:00:12;15.43;;;11.38;;
70545;SDS011;58098;51.680;5.134;2023-06-22T11:02:38;13.48;;;10.75;;
70545;SDS011;58098;51.680;5.134;2023-06-22T11:05:03;19.50;;;11.37;;
70545;SDS011;58098;51.680;5.134;2023-06-22T11:07:29;15.10;;;11.50;;
70545;SDS011;58098;51.680;5.134;2023-06-22T11:09:55;16.17;;;12.57;;
70545;SDS011;58098;51.680;5.134;2023-06-22T11:12:20;17.63;;;12.30;;
70545;SDS011;58098;51.680;5.134;2023-06-22T11:14:46;16.20;;;11.87;;
70545;SDS011;58098;51.680;5.134;2023-06-22T11:17:11;15.13;;;11.77;;
70545;SDS011;58098;51.680;5.134;2023-06-22T11:19:36;14.43;;;11.50;;
70545;SDS011;58098;51.680;5.134;2023-06-22T11:22:02;15.17;;;10.90;;
70545;SDS011;58098;51.680;5.134;2023-06-22T11:24:27;15.40;;;11.40;;
70545;SDS011;58098;51.680;5.134;2023-06-22T11:26:53;15.77;;;11.23;;
70545;SDS011;58098;51.680;5.134;2023-06-22T11:29:18;14.57;;;10.60;;
70545;SDS011;58098;51.680;5.134;2023-06-22T11:31:43;15.23;;;11.30;;
70545;SDS011;58098;51.680;5.134;2023-06-22T11:34:09;14.43;;;11.33;;
70545;SDS011;58098;51.680;5.134;2023-06-22T11:36:34;15.80;;;11.90;;
70545;SDS011;58098;51.680;5.134;2023-06-22T11:39:00;15.32;;;11.70;;
70545;SDS011;58098;51.680;5.134;2023-06-22T11:41:26;18.15;;;12.55;;
70545;SDS011;58098;51.680;5.134;2023-06-22T11:43:51;13.30;;;10.60;;
70545;SDS011;58098;51.680;5.134;2023-06-22T11:46:17;15.73;;;12.07;;
70545;SDS011;58098;51.680;5.134;2023-06-22T11:48:42;18.37;;;11.70;;
70545;SDS011;58098;51.680;5.134;2023-06-22T11:51:08;13.00;;;11.07;;
70545;SDS011;58098;51.680;5.134;2023-06-22T11:53:33;15.90;;;11.97;;
70545;SDS011;58098;51.680;5.134;2023-06-22T11:56:00;16.55;;;11.60;;
70545;SDS011;58098;51.680;5.134;2023-06-22T11:58:26;12.83;;;11.40;;
70545;SDS011;58098;51.680;5.134;2023-06-22T12:00:51;16.33;;;12.50;;
70545;SDS011;58098;51.680;5.134;2023-06-22T12:03:17;14.73;;;12.00;;
70545;SDS011;58098;51.680;5.134;2023-06-22T12:05:42;18.50;;;13.90;;
70545;SDS011;58098;51.680;5.134;2023-06-22T12:08:08;16.75;;;13.88;;
70545;SDS011;58098;51.680;5.134;2023-06-22T12:10:33;24.07;;;13.77;;
70545;SDS011;58098;51.680;5.134;2023-06-22T12:12:59;22.60;;;13.82;;
70545;SDS011;58098;51.680;5.134;2023-06-22T12:15:25;18.00;;;13.10;;
70545;SDS011;58098;51.680;5.134;2023-06-22T12:17:50;14.93;;;12.25;;
70545;SDS011;58098;51.680;5.134;2023-06-22T12:20:16;17.23;;;12.70;;
70545;SDS011;58098;51.680;5.134;2023-06-22T12:22:41;16.00;;;11.57;;
70545;SDS011;58098;51.680;5.134;2023-06-22T12:25:10;17.53;;;12.80;;
70545;SDS011;58098;51.680;5.134;2023-06-22T12:27:36;20.20;;;13.00;;
70545;SDS011;58098;51.680;5.134;2023-06-22T12:30:02;22.20;;;14.48;;
70545;SDS011;58098;51.680;5.134;2023-06-22T12:32:28;22.67;;;15.63;;
70545;SDS011;58098;51.680;5.134;2023-06-22T12:34:54;25.10;;;13.90;;
70545;SDS011;58098;51.680;5.134;2023-06-22T12:37:19;17.52;;;12.65;;
70545;SDS011;58098;51.680;5.134;2023-06-22T12:39:45;22.87;;;14.67;;
70545;SDS011;58098;51.680;5.134;2023-06-22T12:42:10;19.20;;;14.70;;
70545;SDS011;58098;51.680;5.134;2023-06-22T12:44:37;20.98;;;14.35;;
70545;SDS011;58098;51.680;5.134;2023-06-22T12:47:03;21.88;;;15.05;;
70545;SDS011;58098;51.680;5.134;2023-06-22T12:49:29;18.53;;;14.37;;
70545;SDS011;58098;51.680;5.134;2023-06-22T12:51:54;20.03;;;14.67;;
70545;SDS011;58098;51.680;5.134;2023-06-22T12:54:20;18.10;;;15.95;;
70545;SDS011;58098;51.680;5.134;2023-06-22T12:56:45;20.80;;;15.43;;
70545;SDS011;58098;51.680;5.134;2023-06-22T12:59:11;24.65;;;16.27;;
70545;SDS011;58098;51.680;5.134;2023-06-22T13:01:37;22.20;;;16.03;;
70545;SDS011;58098;51.680;5.134;2023-06-22T13:04:02;22.20;;;17.57;;
70545;SDS011;58098;51.680;5.134;2023-06-22T13:06:28;22.97;;;17.77;;
70545;SDS011;58098;51.680;5.134;2023-06-22T13:08:53;20.50;;;16.70;;
70545;SDS011;58098;51.680;5.134;2023-06-22T13:11:19;22.13;;;17.23;;
70545;SDS011;58098;51.680;5.134;2023-06-22T13:13:44;27.50;;;17.90;;
70545;SDS011;58098;51.680;5.134;2023-06-22T13:16:11;23.55;;;17.52;;
70545;SDS011;58098;51.680;5.134;2023-06-22T13:18:36;24.43;;;17.80;;
70545;SDS011;58098;51.680;5.134;2023-06-22T13:21:02;20.73;;;17.60;;
70545;SDS011;58098;51.680;5.134;2023-06-22T13:23:28;23.15;;;17.42;;
70545;SDS011;58098;51.680;5.134;2023-06-22T13:25:53;20.93;;;16.17;;
70545;SDS011;58098;51.680;5.134;2023-06-22T13:28:19;21.13;;;15.77;;
70545;SDS011;58098;51.680;5.134;2023-06-22T13:30:45;21.83;;;17.57;;
70545;SDS011;58098;51.680;5.134;2023-06-22T13:33:12;23.55;;;17.30;;
70545;SDS011;58098;51.680;5.134;2023-06-22T13:35:38;22.17;;;18.55;;
70545;SDS011;58098;51.680;5.134;2023-06-22T13:38:03;20.63;;;16.70;;
70545;SDS011;58098;51.680;5.134;2023-06-22T13:40:29;21.80;;;18.58;;
70545;SDS011;58098;51.680;5.134;2023-06-22T13:42:55;21.47;;;18.43;;
70545;SDS011;58098;51.680;5.134;2023-06-22T13:45:20;21.85;;;17.50;;
70545;SDS011;58098;51.680;5.134;2023-06-22T13:47:46;24.27;;;19.13;;
70545;SDS011;58098;51.680;5.134;2023-06-22T13:50:12;22.13;;;17.53;;
70545;SDS011;58098;51.680;5.134;2023-06-22T13:52:40;22.08;;;18.80;;
70545;SDS011;58098;51.680;5.134;2023-06-22T13:55:05;22.43;;;17.83;;
70545;SDS011;58098;51.680;5.134;2023-06-22T13:57:39;24.33;;;19.52;;
70545;SDS011;58098;51.680;5.134;2023-06-22T14:00:05;23.98;;;19.67;;
70545;SDS011;58098;51.680;5.134;2023-06-22T14:02:31;21.52;;;18.67;;
70545;SDS011;58098;51.680;5.134;2023-06-22T14:04:56;21.00;;;18.80;;
70545;SDS011;58098;51.680;5.134;2023-06-22T14:07:21;27.70;;;20.67;;
70545;SDS011;58098;51.680;5.134;2023-06-22T14:09:47;23.33;;;20.33;;
70545;SDS011;58098;51.680;5.134;2023-06-22T14:12:13;24.77;;;19.88;;
70545;SDS011;58098;51.680;5.134;2023-06-22T14:14:38;22.93;;;19.67;;
70545;SDS011;58098;51.680;5.134;2023-06-22T14:17:04;26.27;;;20.47;;
70545;SDS011;58098;51.680;5.134;2023-06-22T14:19:30;25.77;;;21.27;;
70545;SDS011;58098;51.680;5.134;2023-06-22T14:21:56;27.15;;;23.50;;